createdAt,value
2023-04-20T00:00:50.948Z,35.95
2023-04-20T00:03:21.536Z,35.90
2023-04-20T00:05:50.506Z,37.28
2023-04-20T00:08:18.693Z,36.74
2023-04-20T00:10:47.024Z,36.60
2023-04-20T00:13:15.002Z,36.62
2023-04-20T00:15:42.940Z,36.91
2023-04-20T00:18:11.151Z,37.68
2023-04-20T00:20:40.518Z,36.86
2023-04-20T00:23:08.836Z,38.04
2023-04-20T00:25:36.753Z,37.56
2023-04-20T00:28:05.134Z,38.75
2023-04-20T00:30:34.879Z,39.69
2023-04-20T00:33:04.292Z,38.81
2023-04-20T00:35:32.292Z,39.28
2023-04-20T00:38:01.594Z,39.56
2023-04-20T00:40:30.737Z,39.60
2023-04-20T00:42:58.656Z,39.67
2023-04-20T00:45:26.751Z,40.42
2023-04-20T00:47:54.722Z,41.31
2023-04-20T00:50:22.769Z,41.08
2023-04-20T00:52:51.035Z,40.33
2023-04-20T00:55:21.681Z,40.71
2023-04-20T00:57:49.946Z,37.77
2023-04-20T01:00:18.198Z,39.33
2023-04-20T01:02:49.981Z,39.34
2023-04-20T01:05:18.562Z,39.29
2023-04-20T01:07:46.599Z,38.97
2023-04-20T01:10:14.607Z,39.58
2023-04-20T01:12:43.924Z,38.31
2023-04-20T01:15:12.296Z,39.59
2023-04-20T01:17:40.894Z,38.20
2023-04-20T01:20:12.468Z,35.98
2023-04-20T01:22:46.828Z,35.83
2023-04-20T01:25:14.994Z,35.12
2023-04-20T01:27:43.011Z,37.04
2023-04-20T01:30:12.125Z,35.50
2023-04-20T01:32:40.847Z,35.27
2023-04-20T01:35:10.015Z,37.01
2023-04-20T01:37:39.702Z,37.95
2023-04-20T01:40:11.075Z,37.72
2023-04-20T01:42:39.211Z,38.17
2023-04-20T01:45:08.556Z,37.98
2023-04-20T01:47:36.963Z,37.49
2023-04-20T01:50:05.322Z,38.66
2023-04-20T01:52:33.177Z,38.95
2023-04-20T01:55:01.125Z,37.47
2023-04-20T01:57:30.326Z,37.74
2023-04-20T01:59:58.249Z,37.92
2023-04-20T02:02:26.273Z,38.11
2023-04-20T02:04:55.154Z,37.85
2023-04-20T02:07:23.169Z,38.99
2023-04-20T02:09:51.074Z,38.37
2023-04-20T02:12:19.008Z,38.27
2023-04-20T02:14:48.272Z,36.84
2023-04-20T02:17:16.359Z,35.52
2023-04-20T02:19:44.547Z,34.64
2023-04-20T02:22:12.500Z,34.52
2023-04-20T02:24:41.457Z,34.81
2023-04-20T02:27:09.352Z,38.05
2023-04-20T02:29:37.383Z,38.36
2023-04-20T02:32:08.193Z,39.40
2023-04-20T02:34:36.209Z,39.78
2023-04-20T02:37:04.460Z,39.63
2023-04-20T02:39:32.332Z,40.08
2023-04-20T02:42:00.344Z,41.33
2023-04-20T02:44:29.168Z,40.43
2023-04-20T02:46:57.424Z,41.47
2023-04-20T02:49:28.017Z,42.41
2023-04-20T02:51:55.941Z,41.58
2023-04-20T02:54:24.174Z,41.78
2023-04-20T02:56:52.471Z,42.53
2023-04-20T02:59:20.380Z,42.04
2023-04-20T03:02:00.361Z,41.46
2023-04-20T03:04:31.174Z,42.94
2023-04-20T03:07:18.929Z,43.29
2023-04-20T03:09:48.545Z,43.60
2023-04-20T03:12:19.377Z,43.38
2023-04-20T03:14:59.827Z,44.22
2023-04-20T03:17:40.522Z,44.94
2023-04-20T03:20:11.159Z,45.41
2023-04-20T03:22:39.338Z,45.45
2023-04-20T03:25:09.027Z,45.21
2023-04-20T03:28:00.334Z,46.73
2023-04-20T03:30:28.619Z,47.29
2023-04-20T03:33:17.033Z,47.74
2023-04-20T03:35:46.361Z,48.30
2023-04-20T03:38:14.402Z,48.49
2023-04-20T03:40:42.324Z,49.71
2023-04-20T03:43:11.251Z,49.41
2023-04-20T03:45:39.220Z,49.65
2023-04-20T03:48:07.307Z,50.31
2023-04-20T03:50:35.179Z,47.05
2023-04-20T03:53:04.450Z,45.54
2023-04-20T03:55:33.074Z,46.10
2023-04-20T03:58:06.955Z,45.41
2023-04-20T04:00:45.798Z,45.50
2023-04-20T04:03:15.709Z,45.54
2023-04-20T04:05:43.875Z,44.68
2023-04-20T04:08:13.139Z,47.15
2023-04-20T04:10:41.065Z,47.23
2023-04-20T04:13:09.023Z,48.44
2023-04-20T04:15:37.754Z,47.29
2023-04-20T04:18:11.115Z,47.41
2023-04-20T04:20:40.767Z,47.18
2023-04-20T04:23:10.414Z,48.62
2023-04-20T04:25:46.167Z,48.39
2023-04-20T04:28:16.586Z,47.95
2023-04-20T04:30:54.235Z,48.61
2023-04-20T04:33:23.198Z,47.56
2023-04-20T04:35:53.644Z,46.97
2023-04-20T04:38:22.836Z,48.49
2023-04-20T04:40:53.965Z,48.82
2023-04-20T04:43:22.277Z,46.94
2023-04-20T04:46:00.045Z,47.33
2023-04-20T04:48:29.134Z,47.87
2023-04-20T04:50:57.042Z,47.28
2023-04-20T04:53:24.934Z,47.31
2023-04-20T04:55:54.161Z,47.54
2023-04-20T04:58:22.077Z,47.94
2023-04-20T05:00:50.242Z,47.99
2023-04-20T05:03:18.386Z,48.40
2023-04-20T05:05:46.572Z,48.19
2023-04-20T05:08:14.484Z,48.74
2023-04-20T05:10:42.378Z,47.46
2023-04-20T05:13:11.702Z,49.66
2023-04-20T05:15:40.582Z,49.70
2023-04-20T05:18:09.677Z,49.79
2023-04-20T05:20:37.778Z,51.49
2023-04-20T05:23:05.698Z,52.48
2023-04-20T05:25:33.806Z,53.54
2023-04-20T05:28:01.757Z,53.25
2023-04-20T05:30:31.416Z,53.72
2023-04-20T05:32:59.511Z,53.83
2023-04-20T05:35:27.532Z,53.73
2023-04-20T05:37:55.634Z,52.46
2023-04-20T05:40:23.816Z,53.71
2023-04-20T05:42:51.943Z,53.91
2023-04-20T05:45:20.042Z,53.90
2023-04-20T05:47:55.197Z,53.04
2023-04-20T05:50:23.601Z,53.32
2023-04-20T05:52:51.767Z,53.17
2023-04-20T05:55:22.260Z,53.25
2023-04-20T05:57:52.746Z,53.33
2023-04-20T06:00:23.796Z,53.54
2023-04-20T06:02:55.492Z,53.73
2023-04-20T06:05:23.874Z,53.56
2023-04-20T06:07:51.850Z,52.81
2023-04-20T06:10:19.835Z,53.33
2023-04-20T06:12:48.227Z,53.43
2023-04-20T06:15:16.241Z,52.98
2023-04-20T06:17:44.149Z,53.79
2023-04-20T06:20:13.625Z,53.13
2023-04-20T06:22:44.555Z,53.13
2023-04-20T06:25:13.477Z,52.68
2023-04-20T06:27:41.460Z,52.90
2023-04-20T06:30:10.104Z,51.87
2023-04-20T06:32:38.875Z,52.44
2023-04-20T06:35:08.575Z,51.49
2023-04-20T06:37:38.726Z,52.59
2023-04-20T06:40:09.371Z,52.87
2023-04-20T06:42:37.701Z,51.44
2023-04-20T06:45:06.873Z,50.92
2023-04-20T06:47:34.962Z,50.92
2023-04-20T06:50:07.123Z,51.34
2023-04-20T06:52:35.102Z,49.87
2023-04-20T06:55:04.583Z,49.89
2023-04-20T06:57:32.559Z,49.16
2023-04-20T07:00:00.572Z,50.27
2023-04-20T07:02:29.226Z,51.15
2023-04-20T07:05:02.525Z,50.92
2023-04-20T07:07:30.662Z,51.21
2023-04-20T07:09:58.665Z,49.92
2023-04-20T07:12:27.949Z,48.94
2023-04-20T07:14:56.058Z,50.83
2023-04-20T07:17:23.927Z,50.23
2023-04-20T07:19:52.609Z,49.61
2023-04-20T07:22:20.504Z,50.71
2023-04-20T07:24:48.489Z,50.20
2023-04-20T07:27:16.567Z,50.95
2023-04-20T07:29:45.893Z,50.37
2023-04-20T07:32:14.643Z,50.63
2023-04-20T07:34:42.719Z,50.27
2023-04-20T07:37:10.633Z,49.89
2023-04-20T07:39:38.620Z,50.07
2023-04-20T07:42:07.795Z,49.39
2023-04-20T07:44:36.626Z,50.59
2023-04-20T07:47:06.004Z,51.04
2023-04-20T07:49:37.532Z,50.57
2023-04-20T07:52:15.734Z,51.73
2023-04-20T07:54:45.296Z,52.34
2023-04-20T07:59:58.466Z,50.66
2023-04-20T08:02:27.891Z,51.62
2023-04-20T08:04:56.262Z,49.65
2023-04-20T08:07:24.227Z,51.05
2023-04-20T08:09:52.109Z,52.91
2023-04-20T08:12:19.991Z,52.58
2023-04-20T08:14:47.942Z,53.11
2023-04-20T08:17:16.129Z,52.77
2023-04-20T08:19:46.155Z,52.75
2023-04-20T08:22:14.337Z,52.66
2023-04-20T08:24:42.226Z,50.99
2023-04-20T08:27:10.292Z,51.78
2023-04-20T08:29:39.468Z,51.21
2023-04-20T08:32:09.115Z,51.25
2023-04-20T08:34:37.270Z,51.39
2023-04-20T08:37:07.068Z,48.90
2023-04-20T08:39:34.975Z,48.92
2023-04-20T08:42:03.294Z,50.43
2023-04-20T08:44:31.552Z,49.45
2023-04-20T08:47:00.868Z,49.18
2023-04-20T08:49:30.747Z,49.40
2023-04-20T08:51:58.847Z,48.75
2023-04-20T08:54:28.105Z,49.69
2023-04-20T08:56:56.825Z,47.88
2023-04-20T08:59:24.813Z,48.74
2023-04-20T09:01:52.841Z,48.97
2023-04-20T09:04:23.476Z,47.75
2023-04-20T09:06:53.625Z,48.41
2023-04-20T09:09:23.500Z,48.47
2023-04-20T09:12:03.632Z,48.05
2023-04-20T09:14:32.452Z,48.19
2023-04-20T09:17:02.229Z,48.25
2023-04-20T09:19:31.091Z,49.41
2023-04-20T09:22:01.276Z,48.96
2023-04-20T09:24:33.035Z,48.13
2023-04-20T09:27:03.845Z,50.00
2023-04-20T09:29:32.199Z,51.14
2023-04-20T09:32:00.211Z,51.20
2023-04-20T09:34:28.311Z,52.14
2023-04-20T09:36:57.509Z,51.23
2023-04-20T09:39:26.921Z,51.47
2023-04-20T09:41:54.837Z,49.92
2023-04-20T09:44:24.202Z,48.76
2023-04-20T09:46:53.026Z,48.08
2023-04-20T09:49:21.371Z,47.31
2023-04-20T09:51:50.682Z,47.59
2023-04-20T09:54:18.904Z,46.68
2023-04-20T09:56:47.244Z,46.60
2023-04-20T09:59:15.406Z,46.71
2023-04-20T10:01:44.902Z,47.60
2023-04-20T10:04:14.946Z,44.65
2023-04-20T10:06:53.896Z,45.56
2023-04-20T10:09:25.850Z,46.22
2023-04-20T10:11:56.079Z,46.50
2023-04-20T10:14:26.732Z,46.07
2023-04-20T10:17:03.597Z,46.38
2023-04-20T10:19:39.680Z,45.73
2023-04-20T10:22:08.482Z,44.81
2023-04-20T10:24:38.182Z,44.89
2023-04-20T10:27:16.955Z,45.15
2023-04-20T10:29:47.046Z,44.63
2023-04-20T10:32:25.136Z,43.95
2023-04-20T10:35:04.622Z,42.80
2023-04-20T10:37:32.705Z,44.46
2023-04-20T10:40:00.831Z,44.74
2023-04-20T10:42:29.681Z,44.00
2023-04-20T10:44:57.719Z,42.66
2023-04-20T10:47:34.229Z,41.40
2023-04-20T10:50:10.001Z,40.09
2023-04-20T10:52:39.764Z,40.00
2023-04-20T10:55:19.185Z,37.92
2023-04-20T10:57:47.239Z,39.59
2023-04-20T11:00:17.668Z,38.58
2023-04-20T11:02:55.442Z,37.09
2023-04-20T11:05:24.839Z,35.45
2023-04-20T11:07:54.111Z,34.86
2023-04-20T11:10:23.877Z,33.69
2023-04-20T11:12:53.196Z,34.60
2023-04-20T11:15:31.665Z,36.00
2023-04-20T11:18:09.072Z,34.73
2023-04-20T11:20:37.397Z,34.78
2023-04-20T11:23:06.072Z,34.88
2023-04-20T11:25:34.147Z,30.43
2023-04-20T11:28:08.623Z,30.46
2023-04-20T11:30:41.427Z,31.27
2023-04-20T11:33:11.655Z,34.26
2023-04-20T11:35:41.368Z,32.44
2023-04-20T11:38:09.696Z,29.94
2023-04-20T11:40:37.729Z,28.18
2023-04-20T11:43:05.703Z,28.28
2023-04-20T11:45:36.258Z,27.68
2023-04-20T11:48:06.067Z,29.11
2023-04-20T11:50:36.122Z,27.75
2023-04-20T11:53:04.392Z,27.20
2023-04-20T11:55:32.275Z,26.51
2023-04-20T11:58:00.129Z,28.40
2023-04-20T12:00:28.271Z,28.26
2023-04-20T12:02:56.365Z,25.75
2023-04-20T12:05:24.582Z,25.56
2023-04-20T12:07:53.976Z,24.03
2023-04-20T12:10:22.142Z,22.98
2023-04-20T12:12:50.194Z,25.47
2023-04-20T12:15:18.402Z,27.67
2023-04-20T12:17:46.715Z,27.40
2023-04-20T12:20:15.226Z,28.24
2023-04-20T12:22:43.424Z,29.45
2023-04-20T12:25:13.085Z,28.16
2023-04-20T12:27:41.440Z,29.57
2023-04-20T12:30:10.496Z,30.46
2023-04-20T12:32:38.523Z,31.28
2023-04-20T12:35:08.465Z,31.99
2023-04-20T12:37:36.870Z,32.07
2023-04-20T12:40:06.349Z,32.53
2023-04-20T12:42:35.701Z,31.58
2023-04-20T12:45:03.612Z,31.25
2023-04-20T12:47:31.864Z,32.21
2023-04-20T12:49:59.826Z,31.88
2023-04-20T12:52:28.078Z,32.07
2023-04-20T12:54:56.024Z,32.86
2023-04-20T12:57:24.055Z,33.25
2023-04-20T12:59:53.656Z,33.08
2023-04-20T13:02:21.641Z,33.44
2023-04-20T13:04:49.698Z,34.30
2023-04-20T13:07:17.725Z,33.41
2023-04-20T13:09:45.738Z,34.88
2023-04-20T13:12:14.409Z,35.06
2023-04-20T13:14:42.377Z,34.80
2023-04-20T13:17:11.638Z,34.49
2023-04-20T13:19:39.848Z,33.92
2023-04-20T13:22:07.802Z,32.28
2023-04-20T13:24:35.710Z,28.00
2023-04-20T13:27:04.517Z,23.63
2023-04-20T13:29:32.621Z,21.57
2023-04-20T13:32:00.748Z,19.87
2023-04-20T13:34:30.189Z,20.15
2023-04-20T13:36:58.307Z,17.19
2023-04-20T13:39:27.858Z,21.93
2023-04-20T13:41:55.953Z,26.26
2023-04-20T13:44:23.895Z,28.51
2023-04-20T13:46:51.855Z,29.22
2023-04-20T13:49:22.824Z,29.14
2023-04-20T13:51:52.255Z,29.73
2023-04-20T13:54:25.928Z,30.29
2023-04-20T13:56:54.194Z,28.76
2023-04-20T13:59:22.180Z,30.01
2023-04-20T14:01:50.183Z,30.42
2023-04-20T14:04:18.556Z,30.84
2023-04-20T14:06:46.788Z,29.70
2023-04-20T14:09:16.205Z,30.25
2023-04-20T14:11:44.159Z,28.31
2023-04-20T14:14:12.435Z,27.95
2023-04-20T14:16:44.668Z,29.30
2023-04-20T14:19:12.706Z,29.32
2023-04-20T14:21:41.333Z,27.12
2023-04-20T14:24:10.431Z,27.06
2023-04-20T14:26:39.796Z,27.21
2023-04-20T14:29:07.793Z,27.96
2023-04-20T14:31:35.944Z,28.64
2023-04-20T14:34:04.396Z,29.40
2023-04-20T14:36:32.412Z,29.21
2023-04-20T14:39:00.435Z,28.87
2023-04-20T14:41:28.455Z,27.93
2023-04-20T14:43:57.779Z,28.29
2023-04-20T14:46:25.763Z,28.15
2023-04-20T14:48:53.813Z,28.31
2023-04-20T14:51:21.819Z,28.37
2023-04-20T14:53:49.946Z,28.02
2023-04-20T14:56:17.915Z,26.34
2023-04-20T14:58:48.021Z,21.11
2023-04-20T15:01:21.443Z,19.34
2023-04-20T15:03:49.645Z,23.05
2023-04-20T15:06:17.906Z,25.17
2023-04-20T15:08:45.864Z,25.65
2023-04-20T15:11:13.911Z,25.34
2023-04-20T15:13:42.446Z,26.03
2023-04-20T15:16:10.577Z,26.19
2023-04-20T15:18:39.893Z,26.92
2023-04-20T15:21:08.450Z,27.00
2023-04-20T15:23:36.590Z,27.03
2023-04-20T15:26:04.505Z,26.37
2023-04-20T15:28:32.561Z,27.05
2023-04-20T15:31:00.503Z,26.97
2023-04-20T15:33:28.461Z,28.12
2023-04-20T15:35:57.883Z,29.02
2023-04-20T15:38:25.889Z,27.94
2023-04-20T15:40:53.929Z,26.73
2023-04-20T15:43:21.819Z,25.06
2023-04-20T15:45:49.950Z,26.99
2023-04-20T15:48:18.624Z,25.61
2023-04-20T15:50:46.840Z,26.93
2023-04-20T15:53:16.099Z,27.75
2023-04-20T15:55:44.198Z,30.22
2023-04-20T15:58:12.075Z,32.22
2023-04-20T16:00:41.329Z,30.90
2023-04-20T16:03:09.528Z,31.01
2023-04-20T16:05:37.916Z,29.69
2023-04-20T16:08:06.526Z,27.50
2023-04-20T16:10:36.308Z,27.42
2023-04-20T16:13:04.628Z,29.08
2023-04-20T16:15:32.695Z,31.10
2023-04-20T16:18:00.915Z,31.32
2023-04-20T16:20:29.028Z,31.79
2023-04-20T16:22:57.046Z,32.44
2023-04-20T16:25:25.594Z,34.10
2023-04-20T16:27:54.996Z,34.65
2023-04-20T16:30:23.011Z,34.23
2023-04-20T16:32:51.133Z,35.14
2023-04-20T16:35:19.084Z,36.71
2023-04-20T16:37:47.138Z,36.28
2023-04-20T16:40:15.089Z,35.76
2023-04-20T16:42:43.056Z,36.78
2023-04-20T16:45:12.434Z,36.39
2023-04-20T16:47:40.733Z,37.83
2023-04-20T16:50:09.266Z,38.22
2023-04-20T16:52:37.319Z,39.32
2023-04-20T16:55:05.920Z,38.09
2023-04-20T16:57:33.855Z,40.88
2023-04-20T17:00:01.837Z,41.10
2023-04-20T17:02:33.151Z,42.23
2023-04-20T17:05:01.239Z,43.10
2023-04-20T17:07:29.327Z,42.83
2023-04-20T17:09:57.344Z,44.21
2023-04-20T17:12:25.381Z,43.77
2023-04-20T17:14:53.234Z,44.75
2023-04-20T17:17:21.150Z,44.45
2023-04-20T17:19:50.542Z,44.55
2023-04-20T17:22:18.404Z,44.84
2023-04-20T17:24:46.539Z,44.94
2023-04-20T17:27:16.003Z,45.09
2023-04-20T17:29:44.953Z,46.79
2023-04-20T17:32:13.095Z,47.15
2023-04-20T17:34:41.248Z,45.31
2023-04-20T17:37:12.051Z,47.42
2023-04-20T17:39:40.040Z,47.66
2023-04-20T17:42:08.052Z,49.26
2023-04-20T17:44:36.087Z,49.02
2023-04-20T17:47:04.030Z,48.68
2023-04-20T17:49:32.493Z,49.21
2023-04-20T17:52:00.522Z,48.95
2023-04-20T17:54:29.848Z,48.72
2023-04-20T17:56:58.095Z,48.52
2023-04-20T17:59:26.340Z,50.40
2023-04-20T18:01:54.414Z,51.14
2023-04-20T18:04:22.631Z,50.48
2023-04-20T18:06:51.422Z,49.86
2023-04-20T18:09:19.250Z,49.87
2023-04-20T18:11:50.727Z,52.66
2023-04-20T18:14:18.707Z,53.80
2023-04-20T18:16:51.692Z,54.25
2023-04-20T18:19:19.787Z,53.34
2023-04-20T18:21:47.797Z,53.96
2023-04-20T18:24:15.815Z,52.34
2023-04-20T18:26:43.833Z,52.82
2023-04-20T18:29:13.207Z,52.30
2023-04-20T18:31:41.258Z,52.57
2023-04-20T18:34:11.598Z,52.84
2023-04-20T18:36:40.106Z,53.01
2023-04-20T18:39:14.740Z,51.38
2023-04-20T18:41:48.430Z,52.10
2023-04-20T18:44:18.249Z,51.18
2023-04-20T18:46:46.575Z,50.60
2023-04-20T18:49:14.807Z,49.82
2023-04-20T18:51:42.719Z,50.00
2023-04-20T18:54:10.880Z,49.08
2023-04-20T18:56:39.589Z,49.82
2023-04-20T18:59:08.592Z,49.98
2023-04-20T19:01:40.592Z,49.71
2023-04-20T19:04:09.146Z,50.12
2023-04-20T19:06:37.321Z,50.62
2023-04-20T19:09:07.889Z,50.91
2023-04-20T19:11:36.420Z,50.21
2023-04-20T19:14:04.368Z,49.51
2023-04-20T19:16:32.900Z,48.84
2023-04-20T19:19:02.940Z,49.37
2023-04-20T19:21:32.003Z,49.95
2023-04-20T19:24:00.281Z,50.03
2023-04-20T19:26:28.329Z,49.01
2023-04-20T19:28:58.144Z,49.00
2023-04-20T19:31:26.434Z,49.71
2023-04-20T19:33:57.191Z,48.67
2023-04-20T19:36:26.671Z,48.50
2023-04-20T19:38:54.650Z,48.13
2023-04-20T19:41:22.590Z,49.03
2023-04-20T19:43:50.523Z,49.23
2023-04-20T19:46:18.551Z,48.72
2023-04-20T19:48:46.505Z,49.14
2023-04-20T19:51:14.401Z,49.13
2023-04-20T19:53:43.636Z,48.47
2023-04-20T19:56:11.507Z,49.92
2023-04-20T19:58:39.393Z,49.95
2023-04-20T20:01:07.340Z,48.90
2023-04-20T20:03:35.573Z,49.10
2023-04-20T20:06:03.790Z,50.21
2023-04-20T20:08:31.697Z,50.17
2023-04-20T20:11:00.933Z,49.53
2023-04-20T20:13:28.859Z,49.45
2023-04-20T20:15:56.879Z,50.48
2023-04-20T20:18:24.804Z,50.49
2023-04-20T20:20:52.686Z,48.94
2023-04-20T20:23:20.817Z,50.05
2023-04-20T20:25:48.866Z,50.82
2023-04-20T20:28:18.120Z,50.84
2023-04-20T20:30:46.309Z,50.66
2023-04-20T20:33:14.324Z,51.29
2023-04-20T20:35:42.600Z,49.68
2023-04-20T20:38:11.012Z,49.75
2023-04-20T20:40:45.038Z,49.71
2023-04-20T20:43:12.978Z,50.18
2023-04-20T20:45:43.013Z,49.99
2023-04-20T20:48:11.055Z,51.11
2023-04-20T20:50:39.091Z,50.30
2023-04-20T20:53:07.862Z,50.25
2023-04-20T20:55:35.932Z,50.33
2023-04-20T20:58:03.881Z,50.38
2023-04-20T21:00:33.366Z,49.56
2023-04-20T21:03:03.357Z,49.85
2023-04-20T21:05:33.637Z,49.66
2023-04-20T21:08:03.358Z,49.94
2023-04-20T21:10:31.510Z,49.32
2023-04-20T21:12:59.430Z,49.54
2023-04-20T21:15:29.501Z,50.02
2023-04-20T21:17:57.533Z,50.12
2023-04-20T21:20:26.882Z,50.59
2023-04-20T21:22:55.006Z,49.37
2023-04-20T21:25:23.124Z,49.34
2023-04-20T21:27:51.023Z,49.48
2023-04-20T21:30:19.012Z,50.20
2023-04-20T21:32:46.943Z,49.85
2023-04-20T21:35:14.811Z,49.71
2023-04-20T21:37:44.075Z,50.40
2023-04-20T21:40:13.007Z,50.37
2023-04-20T21:42:40.982Z,50.49
2023-04-20T21:45:10.100Z,49.79
2023-04-20T21:47:38.049Z,49.29
2023-04-20T21:50:06.781Z,48.78
2023-04-20T21:52:34.698Z,50.08
2023-04-20T21:55:04.122Z,49.13
2023-04-20T21:57:32.009Z,48.66
2023-04-20T21:59:59.966Z,48.56
2023-04-20T22:02:28.021Z,50.19
2023-04-20T22:04:56.318Z,49.87
2023-04-20T22:07:24.323Z,49.74
2023-04-20T22:09:52.270Z,48.61
2023-04-20T22:12:32.329Z,49.48
2023-04-20T22:15:04.357Z,50.23
2023-04-20T22:17:34.291Z,49.63
2023-04-20T22:20:04.115Z,50.88
2023-04-20T22:22:31.997Z,51.08
2023-04-20T22:24:59.812Z,52.39
2023-04-20T22:27:29.964Z,52.08
2023-04-20T22:29:58.069Z,51.40
2023-04-20T22:32:26.234Z,52.18
2023-04-20T22:34:55.536Z,50.87
2023-04-20T22:37:28.314Z,50.76
2023-04-20T22:39:56.338Z,52.78
2023-04-20T22:42:24.410Z,51.78
2023-04-20T22:44:53.866Z,53.27
2023-04-20T22:47:21.974Z,53.83
2023-04-20T22:49:50.704Z,54.40
2023-04-20T22:52:18.634Z,55.00
2023-04-20T22:54:48.248Z,56.29
2023-04-20T22:57:18.015Z,56.08
2023-04-20T22:59:45.923Z,56.07
2023-04-20T23:02:15.350Z,57.21
2023-04-20T23:04:43.865Z,55.54
2023-04-20T23:07:12.042Z,55.92
2023-04-20T23:09:42.166Z,55.80
2023-04-20T23:12:10.397Z,56.69
2023-04-20T23:14:39.140Z,56.70
2023-04-20T23:17:07.488Z,56.53
2023-04-20T23:19:38.468Z,57.48
2023-04-20T23:22:09.081Z,57.04
2023-04-20T23:24:37.184Z,57.17
2023-04-20T23:27:05.244Z,56.85
2023-04-20T23:29:33.176Z,56.46
2023-04-20T23:32:01.457Z,55.47
2023-04-20T23:34:29.426Z,55.35
2023-04-20T23:36:59.455Z,58.09
2023-04-20T23:39:27.639Z,56.85
2023-04-20T23:41:56.158Z,56.88
2023-04-20T23:44:24.058Z,56.69
2023-04-20T23:46:52.042Z,57.17
2023-04-20T23:49:20.156Z,57.12
2023-04-20T23:51:48.220Z,58.34
2023-04-20T23:54:17.606Z,59.16
2023-04-20T23:56:45.581Z,58.17
2023-04-20T23:59:13.527Z,58.19
